Time;durP1;ratioP1;P1;durP2;ratioP2;P2;SDS_P1;SDS_P2;PMS_P1;PMS_P2;Temp;Humidity;BMP_temperature;BMP_pressure;BME280_temperature;BME280_humidity;BME280_pressure;Samples;Min_cycle;Max_cycle;Signal;HPM_P1;HPM_P2
2022/06/08 00:02:15;;;;;;;;;2.75;2.50;;;;;20.39;55.42;100548.56;5099830;27;45571;-79
2022/06/08 00:04:41;;;;;;;;;1.25;1.25;;;;;20.47;55.86;100554.78;5131385;27;45179;-78
2022/06/08 00:07:07;;;;;;;;;1.75;1.25;;;;;20.29;55.93;100523.75;5123200;27;45044;-79
2022/06/08 00:09:33;;;;;;;;;2.50;2.00;;;;;20.41;55.60;100546.78;5116110;27;45408;-78
2022/06/08 00:11:59;;;;;;;;;2.00;2.00;;;;;20.24;55.80;100520.22;5124117;27;45575;-78
2022/06/08 00:14:25;;;;;;;;;1.00;1.00;;;;;20.27;55.62;100509.53;5110498;27;45362;-77
2022/06/08 00:16:50;;;;;;;;;2.00;1.75;;;;;20.22;55.58;100505.16;5116080;27;45365;-77
2022/06/08 00:19:16;;;;;;;;;2.00;1.25;;;;;20.39;56.43;100537.88;5122247;27;45475;-77
2022/06/08 00:21:41;;;;;;;;;2.00;2.00;;;;;20.33;55.87;100524.59;5099901;27;45357;-78
2022/06/08 00:24:06;;;;;;;;;6.00;4.50;;;;;20.34;55.70;100521.03;5109746;27;45370;-77
2022/06/08 00:26:32;;;;;;;;;4.25;3.50;;;;;20.34;55.91;100519.28;5111055;27;45390;-79
2022/06/08 00:28:58;;;;;;;;;1.00;1.00;;;;;20.30;56.49;100508.63;5119417;27;45292;-79
2022/06/08 00:31:23;;;;;;;;;1.00;1.00;;;;;20.27;56.84;100508.66;5130405;27;46822;-79
2022/06/08 00:33:49;;;;;;;;;2.25;1.00;;;;;20.28;56.31;100510.41;5130904;27;45155;-79
2022/06/08 00:36:14;;;;;;;;;1.00;1.00;;;;;20.24;56.67;100496.22;5130637;27;45071;-78
2022/06/08 00:38:40;;;;;;;;;2.00;2.00;;;;;20.16;56.36;100479.41;5130389;27;46168;-79
2022/06/08 00:41:32;;;;;;;;;2.75;2.25;;;;;20.34;57.19;100508.59;5130068;27;45163;-78
2022/06/08 00:44:01;;;;;;;;;3.00;3.00;;;;;20.33;57.18;100504.13;5130849;27;45092;-78
2022/06/08 00:46:28;;;;;;;;;3.00;1.00;;;;;20.05;57.30;100460.81;5130860;27;45071;-79
2022/06/08 00:48:59;;;;;;;;;2.25;2.00;;;;;20.17;57.39;100474.94;5129887;27;46038;-78
2022/06/08 00:51:26;;;;;;;;;3.50;2.00;;;;;20.28;57.34;100491.72;5130472;27;45564;-79
2022/06/08 00:53:55;;;;;;;;;2.00;2.00;;;;;20.14;57.75;100466.94;5130918;27;45163;-79
2022/06/08 00:56:27;;;;;;;;;2.75;1.50;;;;;20.04;57.80;100461.69;5130383;27;45197;-78
2022/06/08 00:59:19;;;;;;;;;3.00;2.00;;;;;19.70;57.81;100406.88;5130567;27;45566;-80
2022/06/08 01:02:08;;;;;;;;;1.25;1.25;;;;;19.48;58.52;100380.34;5085233;28;45300;-79
2022/06/08 01:04:34;;;;;;;;;2.50;2.50;;;;;20.16;57.93;100486.53;5066165;28;45386;-79
2022/06/08 01:07:00;;;;;;;;;2.00;2.00;;;;;20.17;58.37;100501.63;5065904;28;47040;-78
2022/06/08 01:09:34;;;;;;;;;2.00;2.00;;;;;20.06;57.83;100483.94;5053505;28;47565;-78
2022/06/08 01:12:02;;;;;;;;;3.00;3.00;;;;;20.06;58.76;100489.25;5069364;28;45219;-78
2022/06/08 01:14:28;;;;;;;;;2.75;1.00;;;;;20.04;57.75;100479.50;5086142;28;45504;-79
2022/06/08 01:17:01;;;;;;;;;2.50;2.25;;;;;20.09;57.93;100491.88;5086593;28;45359;-78
2022/06/08 01:19:27;;;;;;;;;2.00;2.00;;;;;19.80;57.98;100454.81;5085201;28;45903;-77
2022/06/08 01:21:55;;;;;;;;;1.00;1.00;;;;;19.97;57.85;100489.34;5086262;28;45767;-78
2022/06/08 01:24:22;;;;;;;;;3.00;1.75;;;;;19.88;57.88;100485.84;5085433;28;45329;-78
2022/06/08 01:27:16;;;;;;;;;2.50;2.00;;;;;19.95;58.11;100485.81;5085921;28;45443;-79
2022/06/08 01:30:20;;;;;;;;;2.00;2.00;;;;;19.82;57.92;100468.13;5079520;28;46649;-79
2022/06/08 01:32:58;;;;;;;;;2.75;2.75;;;;;19.94;58.45;100483.13;5085252;28;45126;-78
2022/06/08 01:35:46;;;;;;;;;3.25;3.00;;;;;19.82;57.61;100474.34;5069103;28;45088;-78
2022/06/08 01:38:33;;;;;;;;;2.25;2.25;;;;;19.90;58.17;100482.28;5088588;27;45432;-79
2022/06/08 01:41:11;;;;;;;;;3.00;3.00;;;;;19.90;58.40;100471.63;5113799;27;47406;-80
2022/06/08 01:44:00;;;;;;;;;2.25;1.25;;;;;19.69;58.22;100443.31;5114961;27;45488;-79
2022/06/08 01:46:29;;;;;;;;;1.25;1.00;;;;;19.83;58.18;100470.75;5114878;27;45529;-78
2022/06/08 01:49:00;;;;;;;;;1.00;1.00;;;;;19.85;58.71;100497.41;5133444;27;45306;-80
2022/06/08 01:51:31;;;;;;;;;2.75;2.75;;;;;19.83;58.22;100497.44;5133488;27;46121;-78
2022/06/08 01:54:02;;;;;;;;;1.25;1.00;;;;;19.62;59.04;100467.38;5094030;27;45391;-79
2022/06/08 01:56:51;;;;;;;;;3.50;2.00;;;;;19.55;59.85;100454.03;5094078;27;45049;-78
2022/06/08 01:59:43;;;;;;;;;3.00;2.00;;;;;19.68;60.16;100475.34;5112184;27;45317;-79
2022/06/08 02:02:26;;;;;;;;;3.00;3.00;;;;;19.33;60.12;100423.09;5092928;27;47735;-79
2022/06/08 02:04:54;;;;;;;;;2.50;2.50;;;;;19.67;60.23;100485.13;5112662;27;45102;-79
2022/06/08 02:07:48;;;;;;;;;3.75;3.25;;;;;19.64;59.86;100473.56;5112830;27;45318;-78
2022/06/08 02:10:20;;;;;;;;;2.00;1.00;;;;;19.57;60.78;100470.03;5123737;27;45317;-77
2022/06/08 02:12:53;;;;;;;;;3.00;2.75;;;;;19.44;60.66;100463.00;5133625;27;45928;-79
2022/06/08 02:15:29;;;;;;;;;2.75;2.75;;;;;19.44;61.24;100476.34;5132919;27;45614;-78
2022/06/08 02:17:58;;;;;;;;;2.50;2.50;;;;;19.17;61.28;100424.09;5132518;27;45201;-78
2022/06/08 02:20:48;;;;;;;;;2.25;2.00;;;;;19.24;62.24;100441.81;5133202;27;45069;-77
2022/06/08 02:23:15;;;;;;;;;1.75;1.75;;;;;19.31;62.04;100472.88;5113582;27;47516;-79
2022/06/08 02:25:46;;;;;;;;;2.00;2.00;;;;;19.00;62.44;100434.81;5133051;27;45395;-78
2022/06/08 02:28:18;;;;;;;;;3.25;3.00;;;;;19.05;63.20;100452.56;5132949;27;45215;-77
2022/06/08 02:30:55;;;;;;;;;2.00;2.00;;;;;19.11;63.68;100472.94;5132471;27;45052;-77
2022/06/08 02:36:17;;;;;;;;;2.25;2.25;;;;;18.96;63.77;100471.22;5132463;27;45154;-78
2022/06/08 02:38:50;;;;;;;;;2.00;2.00;;;;;18.71;64.27;100437.59;5132559;27;45130;-77
2022/06/08 02:41:17;;;;;;;;;3.50;2.50;;;;;18.73;64.48;100444.72;5131016;27;45421;-78
2022/06/08 02:43:56;;;;;;;;;3.00;2.00;;;;;18.63;65.19;100426.09;5112226;27;45536;-78
2022/06/08 02:46:24;;;;;;;;;1.25;1.25;;;;;18.81;65.43;100453.53;5111780;27;45164;-77
2022/06/08 02:48:49;;;;;;;;;2.75;2.00;;;;;18.79;65.20;100450.00;5111763;27;44989;-78
2022/06/08 02:51:16;;;;;;;;;3.25;2.25;;;;;18.71;66.05;100421.63;5110158;27;45285;-77
2022/06/08 02:53:41;;;;;;;;;3.00;2.25;;;;;18.81;65.30;100450.00;5111842;27;46457;-78
2022/06/08 02:56:26;;;;;;;;;3.67;3.67;;;;;18.66;65.37;100416.28;5111545;27;45361;-78
2022/06/08 02:59:27;;;;;;;;;2.00;2.00;;;;;18.60;65.98;100407.44;5093096;27;45123;-78
2022/06/08 03:02:00;;;;;;;;;3.75;3.00;;;;;18.80;66.41;100433.13;5038674;27;45276;-79
2022/06/08 03:04:32;;;;;;;;;2.75;2.75;;;;;18.81;66.06;100426.03;5131810;27;46085;-78
2022/06/08 03:07:06;;;;;;;;;1.50;1.50;;;;;18.63;65.72;100394.16;5132151;27;45704;-77
2022/06/08 03:09:32;;;;;;;;;2.00;2.00;;;;;18.53;65.51;100386.19;5131507;27;45469;-77
2022/06/08 03:12:06;;;;;;;;;2.00;2.00;;;;;18.64;66.63;100403.91;5131890;27;45167;-77
2022/06/08 03:14:33;;;;;;;;;3.00;2.00;;;;;18.54;66.92;100387.97;5131749;27;46758;-77
2022/06/08 03:17:04;;;;;;;;;2.50;2.00;;;;;18.65;67.24;100395.00;5131628;27;45571;-77
2022/06/08 03:19:32;;;;;;;;;4.00;2.25;;;;;18.42;67.82;100358.75;5132425;27;45092;-77
2022/06/08 03:21:58;;;;;;;;;3.00;3.00;;;;;18.50;67.90;100362.25;5132062;27;45086;-78
2022/06/08 03:24:25;;;;;;;;;2.50;2.00;;;;;18.62;67.57;100376.38;5131089;27;46208;-77
2022/06/08 03:27:05;;;;;;;;;1.25;1.25;;;;;18.67;67.55;100382.56;5132375;27;45202;-77
2022/06/08 03:29:32;;;;;;;;;2.25;2.25;;;;;18.49;67.09;100357.81;5131980;27;45218;-76
2022/06/08 03:31:58;;;;;;;;;2.50;2.00;;;;;18.61;67.39;100374.63;5121051;27;45181;-78
2022/06/08 03:34:23;;;;;;;;;4.50;3.75;;;;;18.46;67.96;100351.59;5110722;27;46379;-78
2022/06/08 03:36:49;;;;;;;;;2.25;2.00;;;;;18.38;68.01;100333.03;5120466;27;48838;-78
2022/06/08 03:39:15;;;;;;;;;3.00;2.00;;;;;18.51;67.81;100350.69;5130997;27;45280;-77
2022/06/08 03:41:44;;;;;;;;;2.00;2.00;;;;;18.61;68.40;100364.84;5096657;27;45160;-77
2022/06/08 03:44:09;;;;;;;;;4.50;3.75;;;;;18.45;68.37;100333.88;5117127;27;45256;-77
2022/06/08 03:46:40;;;;;;;;;2.25;2.25;;;;;18.49;68.32;100332.97;5116875;27;45232;-77
2022/06/08 03:49:08;;;;;;;;;4.75;3.75;;;;;18.45;68.61;100332.09;5118955;27;45113;-78
2022/06/08 03:51:35;;;;;;;;;4.00;3.00;;;;;18.56;68.45;100348.00;5116729;27;45037;-78
2022/06/08 03:54:16;;;;;;;;;2.25;2.25;;;;;18.47;68.33;100335.66;5114950;27;45690;-77
2022/06/08 03:56:46;;;;;;;;;3.00;3.00;;;;;18.44;68.66;100322.34;5118565;27;45392;-78
2022/06/08 03:59:11;;;;;;;;;2.00;2.00;;;;;18.53;68.91;100340.06;5114139;27;45033;-78
2022/06/08 04:01:38;;;;;;;;;3.50;3.50;;;;;18.65;69.20;100350.63;5123344;27;45095;-77
2022/06/08 04:04:04;;;;;;;;;5.00;4.00;;;;;18.54;69.23;100336.50;5115350;27;45417;-79
2022/06/08 04:06:29;;;;;;;;;2.00;2.00;;;;;18.53;68.75;100340.06;5127382;27;45337;-79
2022/06/08 04:08:55;;;;;;;;;4.25;3.25;;;;;18.52;69.05;100332.94;5109703;27;45413;-78
2022/06/08 04:11:21;;;;;;;;;3.50;3.00;;;;;18.30;69.29;100297.56;5116686;27;45166;-77
2022/06/08 04:13:46;;;;;;;;;3.00;3.00;;;;;18.44;69.08;100329.44;5118080;27;45158;-78
2022/06/08 04:16:11;;;;;;;;;4.75;3.25;;;;;18.51;68.93;100337.38;5117710;27;45024;-78
2022/06/08 04:18:37;;;;;;;;;2.75;2.75;;;;;18.46;69.23;100319.66;5116817;27;45072;-78
2022/06/08 04:21:06;;;;;;;;;3.75;3.00;;;;;18.48;69.76;100326.78;5121966;27;45340;-78
2022/06/08 04:23:32;;;;;;;;;4.25;3.75;;;;;18.52;69.38;100336.53;5121173;27;46705;-79
2022/06/08 04:25:58;;;;;;;;;5.00;3.75;;;;;18.48;69.78;100326.78;5120637;27;45309;-78
2022/06/08 04:28:24;;;;;;;;;2.25;2.25;;;;;18.40;69.40;100312.59;5124956;27;46816;-79
2022/06/08 04:30:50;;;;;;;;;4.50;3.00;;;;;18.26;69.16;100291.38;5102136;27;45344;-78
2022/06/08 04:33:16;;;;;;;;;3.00;3.00;;;;;18.29;69.73;100294.03;5120813;27;45401;-78
2022/06/08 04:35:43;;;;;;;;;2.00;2.00;;;;;18.37;69.88;100309.06;5122573;27;45267;-78
2022/06/08 04:38:09;;;;;;;;;3.75;3.00;;;;;18.47;70.22;100324.09;5108585;27;45262;-78
2022/06/08 04:40:34;;;;;;;;;3.00;3.00;;;;;18.34;69.98;100303.78;5114728;27;45729;-78
2022/06/08 04:42:59;;;;;;;;;3.00;3.00;;;;;18.45;69.97;100316.13;5082877;27;47143;-79
2022/06/08 04:45:25;;;;;;;;;3.50;3.50;;;;;18.44;69.98;100322.34;5096918;27;45459;-79
2022/06/08 04:47:51;;;;;;;;;3.25;3.00;;;;;18.32;70.16;100298.44;5089344;27;45722;-78
2022/06/08 04:50:16;;;;;;;;;3.25;3.00;;;;;18.28;69.99;100284.28;5085140;27;45406;-78
2022/06/08 04:52:42;;;;;;;;;6.25;5.00;;;;;18.14;69.99;100262.19;5104475;27;46546;-80
2022/06/08 04:55:11;;;;;;;;;5.00;4.75;;;;;18.37;69.84;100306.41;5103151;27;45536;-77
2022/06/08 04:57:37;;;;;;;;;3.25;3.25;;;;;18.29;69.58;100287.84;5082343;27;46435;-78
2022/06/08 05:00:09;;;;;;;;;5.00;5.00;;;;;18.36;69.67;100294.00;5100004;27;45908;-77
2022/06/08 05:02:48;;;;;;;;;6.00;4.75;;;;;18.39;70.25;100309.97;5103457;27;46576;-77
2022/06/08 05:05:38;;;;;;;;;3.75;3.50;;;;;18.40;70.37;100301.09;5093559;27;45635;-77
2022/06/08 05:08:04;;;;;;;;;3.00;3.00;;;;;18.17;70.85;100270.13;5110000;27;45086;-79
2022/06/08 05:10:32;;;;;;;;;2.00;2.00;;;;;18.37;70.38;100296.63;5118814;27;45364;-76
2022/06/08 05:12:59;;;;;;;;;3.25;3.25;;;;;18.27;70.33;100284.28;5115541;27;45434;-78
2022/06/08 05:15:29;;;;;;;;;3.00;3.00;;;;;18.36;69.93;100299.31;5120375;27;46003;-78
2022/06/08 05:17:56;;;;;;;;;2.50;2.00;;;;;18.12;70.58;100257.75;5119439;27;45632;-79
2022/06/08 05:20:22;;;;;;;;;3.00;3.00;;;;;18.12;69.99;100255.06;5117701;27;45336;-77
2022/06/08 05:22:49;;;;;;;;;3.75;3.25;;;;;18.28;70.49;100294.94;5116778;27;45417;-78
2022/06/08 05:25:25;;;;;;;;;1.75;1.75;;;;;18.27;70.46;100287.84;5127255;27;45680;-78
2022/06/08 05:27:51;;;;;;;;;2.00;2.00;;;;;17.97;70.07;100238.28;5125797;27;45426;-80
2022/06/08 05:30:17;;;;;;;;;1.75;1.75;;;;;18.15;70.18;100263.06;5113919;27;45120;-78
2022/06/08 05:32:42;;;;;;;;;2.25;2.25;;;;;18.07;69.73;100251.56;5112721;27;45447;-78
2022/06/08 05:35:08;;;;;;;;;3.00;3.00;;;;;18.12;70.46;100263.94;5088479;27;45629;-78
2022/06/08 05:37:34;;;;;;;;;3.25;2.50;;;;;18.22;70.78;100275.44;5088802;27;45566;-78
2022/06/08 05:40:00;;;;;;;;;1.50;1.50;;;;;18.11;70.59;100263.97;5088978;27;45701;-77
2022/06/08 05:42:25;;;;;;;;;4.75;3.75;;;;;18.01;70.54;100248.03;5088785;27;45513;-78
2022/06/08 05:44:50;;;;;;;;;3.50;2.50;;;;;18.01;71.08;100244.50;5088916;27;45465;-78
2022/06/08 05:47:16;;;;;;;;;3.50;3.00;;;;;18.05;70.40;100255.13;5071028;27;45413;-78
2022/06/08 05:49:43;;;;;;;;;4.50;4.50;;;;;18.13;70.66;100254.19;5089978;27;45651;-77
2022/06/08 05:52:08;;;;;;;;;3.25;3.00;;;;;18.17;70.89;100264.81;5068684;27;47265;-78
2022/06/08 05:54:33;;;;;;;;;2.75;2.75;;;;;18.20;70.66;100271.91;5088424;27;45503;-77
2022/06/08 05:56:59;;;;;;;;;3.75;3.00;;;;;18.18;70.63;100269.25;5087902;27;45688;-78
2022/06/08 05:59:28;;;;;;;;;2.25;1.75;;;;;18.19;70.77;100271.03;5087606;27;45999;-78
2022/06/08 06:01:53;;;;;;;;;2.00;1.75;;;;;18.18;71.12;100271.91;5087479;27;45609;-78
2022/06/08 06:04:19;;;;;;;;;4.50;1.75;;;;;18.17;70.78;100263.91;5088994;27;45488;-78
2022/06/08 06:06:46;;;;;;;;;2.00;2.00;;;;;18.19;70.94;100267.47;5089759;27;45453;-78
2022/06/08 06:09:13;;;;;;;;;2.75;2.75;;;;;18.25;71.72;100276.31;5089642;27;45440;-77
2022/06/08 06:11:39;;;;;;;;;3.00;3.00;;;;;18.12;71.88;100255.06;5089367;27;46149;-78
2022/06/08 06:14:04;;;;;;;;;1.75;1.75;;;;;18.19;71.41;100270.13;5088918;27;45776;-78
2022/06/08 06:16:30;;;;;;;;;3.50;3.00;;;;;18.09;71.66;100248.00;5089598;27;45654;-78
2022/06/08 06:18:56;;;;;;;;;4.00;3.75;;;;;18.16;71.51;100256.84;5089462;27;45607;-78
2022/06/08 06:21:28;;;;;;;;;3.25;2.25;;;;;18.10;71.07;100252.44;5088992;27;46606;-78
2022/06/08 06:23:56;;;;;;;;;1.00;1.00;;;;;18.24;70.94;100273.66;5089578;27;45963;-78
2022/06/08 06:26:22;;;;;;;;;3.50;2.00;;;;;18.26;71.07;100277.19;5091092;27;45394;-77
2022/06/08 06:28:47;;;;;;;;;2.00;2.00;;;;;18.13;71.46;100255.09;5092983;27;45316;-78
2022/06/08 06:31:20;;;;;;;;;1.75;1.75;;;;;18.21;71.82;100269.22;5091996;27;45418;-78
2022/06/08 06:33:46;;;;;;;;;1.75;1.75;;;;;18.12;71.15;100258.63;5093095;27;45956;-78
2022/06/08 06:36:11;;;;;;;;;2.50;1.50;;;;;18.20;71.18;100271.91;5092447;27;45473;-78
2022/06/08 06:38:37;;;;;;;;;1.75;1.75;;;;;18.08;71.83;100254.22;5093124;27;45533;-78
2022/06/08 06:41:02;;;;;;;;;1.75;1.75;;;;;18.22;71.53;100278.09;5092424;27;46533;-77
2022/06/08 06:43:28;;;;;;;;;2.50;1.75;;;;;18.21;71.56;100284.31;5092328;27;45485;-78
2022/06/08 06:45:53;;;;;;;;;0.75;0.75;;;;;18.23;71.19;100294.06;5092496;27;45791;-77
2022/06/08 06:48:18;;;;;;;;;2.00;2.00;;;;;18.01;72.17;100253.34;5092225;27;45486;-77
2022/06/08 06:50:44;;;;;;;;;2.50;2.50;;;;;18.23;71.59;100293.19;5092326;27;46775;-78
2022/06/08 06:53:11;;;;;;;;;0.75;0.75;;;;;18.20;72.09;100286.09;5092368;27;45460;-78
2022/06/08 06:55:36;;;;;;;;;0.25;0.25;;;;;18.08;71.68;100271.94;5093006;27;45452;-78
2022/06/08 06:58:02;;;;;;;;;0.50;0.50;;;;;18.03;71.73;100256.03;5092539;27;45726;-78
2022/06/08 07:00:27;;;;;;;;;0.75;0.75;;;;;18.07;72.03;100263.06;5091920;27;45386;-78
2022/06/08 07:02:53;;;;;;;;;1.50;1.50;;;;;18.07;72.27;100265.72;5092158;27;45635;-77
2022/06/08 07:05:22;;;;;;;;;0.75;0.75;;;;;18.03;71.73;100253.38;5092316;27;45622;-78
2022/06/08 07:07:48;;;;;;;;;1.00;1.00;;;;;18.16;72.11;100284.31;5093088;27;45562;-78
2022/06/08 07:10:14;;;;;;;;;1.00;1.00;;;;;18.05;72.30;100276.38;5091786;27;45988;-78
2022/06/08 07:12:40;;;;;;;;;1.00;1.00;;;;;17.99;72.38;100255.13;5092770;27;45646;-78
2022/06/08 07:15:06;;;;;;;;;1.50;1.50;;;;;17.95;73.36;100256.03;5091573;27;45427;-78
2022/06/08 07:17:31;;;;;;;;;1.00;1.00;;;;;17.95;72.98;100266.66;5092138;27;45397;-77
2022/06/08 07:19:57;;;;;;;;;0.75;0.75;;;;;17.93;73.16;100273.78;5091985;27;46099;-78
2022/06/08 07:22:22;;;;;;;;;0.00;0.00;;;;;18.08;73.34;100296.78;5091439;27;45299;-78
2022/06/08 07:24:47;;;;;;;;;0.75;0.75;;;;;17.95;73.20;100282.63;5092410;27;45499;-78
2022/06/08 07:27:13;;;;;;;;;0.75;0.75;;;;;17.96;76.23;100281.72;5091994;27;45428;-78
2022/06/08 07:29:39;;;;;;;;;0.00;0.00;;;;;17.90;73.51;100257.81;5092069;27;46121;-77
2022/06/08 07:32:05;;;;;;;;;0.50;0.50;;;;;18.03;73.65;100272.88;5091105;27;45535;-78
2022/06/08 07:34:30;;;;;;;;;0.75;0.75;;;;;17.94;73.27;100253.38;5092198;27;45492;-78
2022/06/08 07:36:56;;;;;;;;;0.00;0.00;;;;;18.14;73.72;100299.41;5091258;27;45617;-78
2022/06/08 07:39:22;;;;;;;;;0.50;0.50;;;;;18.11;72.77;100283.44;5091493;27;45422;-78
2022/06/08 07:41:49;;;;;;;;;0.50;0.50;;;;;18.03;73.01;100264.88;5091850;27;45480;-79
2022/06/08 07:44:16;;;;;;;;;0.75;0.75;;;;;18.05;72.60;100263.09;5091159;27;45483;-77
2022/06/08 07:46:41;;;;;;;;;1.00;1.00;;;;;18.25;72.54;100302.03;5092017;27;46165;-78
2022/06/08 07:51:55;;;;;;;;;0.75;0.75;;;;;18.15;72.70;100284.34;5091229;27;46073;-78
2022/06/08 07:54:23;;;;;;;;;0.00;0.00;;;;;18.20;72.90;100291.41;5091966;27;45291;-78
2022/06/08 07:56:51;;;;;;;;;0.50;0.00;;;;;18.39;72.87;100307.31;5092096;27;45446;-78
2022/06/08 07:59:17;;;;;;;;;0.00;0.00;;;;;18.51;73.21;100291.25;5090844;27;45468;-77
2022/06/08 08:01:42;;;;;;;;;0.00;0.00;;;;;18.59;72.78;100292.13;5091433;27;45413;-78
2022/06/08 08:04:08;;;;;;;;;0.75;0.75;;;;;18.71;72.20;100285.84;5091325;27;46010;-78
2022/06/08 08:06:33;;;;;;;;;0.75;0.75;;;;;18.81;72.47;100271.59;5072756;27;45623;-77
2022/06/08 08:09:00;;;;;;;;;0.00;0.00;;;;;18.99;71.88;100270.59;5092653;27;45418;-78
2022/06/08 08:11:26;;;;;;;;;1.75;1.00;;;;;19.01;71.62;100245.72;5111673;27;45819;-78
2022/06/08 08:13:51;;;;;;;;;0.00;0.00;;;;;19.04;70.72;100226.16;5111975;27;45477;-78
2022/06/08 08:16:17;;;;;;;;;0.25;0.25;;;;;19.26;72.03;100250.81;5111497;27;45704;-78
2022/06/08 08:18:42;;;;;;;;;0.00;0.00;;;;;19.47;71.54;100268.44;5112036;27;45506;-78
2022/06/08 08:21:07;;;;;;;;;1.00;1.00;;;;;19.54;71.41;100262.13;5111101;27;45492;-78
2022/06/08 08:23:33;;;;;;;;;0.50;0.50;;;;;19.61;71.11;100261.22;5093370;27;45551;-78
2022/06/08 08:25:58;;;;;;;;;1.00;0.00;;;;;19.77;71.92;100248.59;5111612;27;45712;-78
2022/06/08 08:28:23;;;;;;;;;0.00;0.00;;;;;20.07;70.95;100252.69;5111105;27;49154;-78
2022/06/08 08:30:49;;;;;;;;;0.25;0.00;;;;;20.19;70.50;100224.97;5092673;27;45796;-78
2022/06/08 08:33:14;;;;;;;;;0.00;0.00;;;;;20.32;70.78;100210.56;5111195;27;45486;-79
2022/06/08 08:35:40;;;;;;;;;1.00;1.00;;;;;20.53;69.95;100249.44;5111954;27;45466;-78
2022/06/08 08:38:05;;;;;;;;;1.00;0.00;;;;;20.41;68.93;100246.94;5111504;27;45826;-78
2022/06/08 08:40:34;;;;;;;;;1.00;1.00;;;;;20.38;69.06;100274.53;5111751;27;45887;-78
2022/06/08 08:43:00;;;;;;;;;1.00;0.50;;;;;20.07;69.10;100245.56;5111224;27;45436;-78
2022/06/08 08:45:32;;;;;;;;;0.00;0.00;;;;;20.19;69.05;100270.31;5092613;27;45581;-78
2022/06/08 08:48:04;;;;;;;;;1.00;0.00;;;;;20.25;69.90;100283.63;5111074;27;46019;-79
2022/06/08 08:50:37;;;;;;;;;0.00;0.00;;;;;20.08;69.73;100252.66;5109986;27;45946;-78
2022/06/08 08:53:23;;;;;;;;;0.00;0.00;;;;;20.19;69.26;100275.66;5111340;27;45499;-78
2022/06/08 08:55:53;;;;;;;;;0.25;0.25;;;;;20.22;69.66;100288.97;5111744;27;45527;-78
2022/06/08 08:58:26;;;;;;;;;1.00;0.25;;;;;20.19;69.90;100294.34;5110841;27;45804;-78
2022/06/08 09:00:54;;;;;;;;;0.50;0.50;;;;;20.04;69.56;100264.25;5111314;27;45711;-78
2022/06/08 09:03:27;;;;;;;;;1.00;1.00;;;;;20.19;69.42;100275.66;5110862;27;45517;-78
2022/06/08 09:05:57;;;;;;;;;1.25;1.00;;;;;20.15;69.51;100266.84;5110791;27;45375;-78
2022/06/08 09:08:24;;;;;;;;;1.50;1.50;;;;;20.40;70.07;100303.91;5110828;27;46513;-78
2022/06/08 09:10:51;;;;;;;;;0.25;0.25;;;;;20.39;69.60;100272.75;5093721;27;45354;-78
2022/06/08 09:13:40;;;;;;;;;1.75;1.75;;;;;20.68;69.24;100291.94;5089878;27;45509;-78
2022/06/08 09:16:06;;;;;;;;;1.00;1.00;;;;;20.68;68.20;100283.06;5090007;27;45664;-78
2022/06/08 09:18:36;;;;;;;;;1.00;1.00;;;;;20.68;69.80;100286.59;5090251;27;46423;-78
2022/06/08 09:21:21;;;;;;;;;1.00;1.00;;;;;20.67;69.12;100289.31;5090113;27;45728;-78
2022/06/08 09:23:50;;;;;;;;;2.00;2.00;;;;;20.65;68.93;100276.00;5090336;27;45399;-78
2022/06/08 09:26:23;;;;;;;;;2.00;2.00;;;;;20.57;68.85;100276.09;5089415;27;45476;-79
2022/06/08 09:28:57;;;;;;;;;2.00;1.75;;;;;20.54;69.22;100283.25;5090442;27;46297;-78
2022/06/08 09:31:31;;;;;;;;;1.00;1.00;;;;;20.39;69.19;100273.63;5089594;27;45377;-78
2022/06/08 09:34:05;;;;;;;;;1.75;1.75;;;;;20.27;69.29;100258.66;5089838;27;45429;-78
2022/06/08 09:36:30;;;;;;;;;3.00;2.00;;;;;20.33;69.79;100276.38;5090437;27;45439;-78
2022/06/08 09:38:56;;;;;;;;;1.75;1.75;;;;;20.44;68.99;100281.56;5089866;27;46326;-78
2022/06/08 09:41:28;;;;;;;;;3.00;3.00;;;;;20.60;68.98;100285.84;5089622;27;46147;-78
2022/06/08 09:44:17;;;;;;;;;3.00;3.00;;;;;20.78;69.26;100298.03;5090165;27;45374;-78
2022/06/08 09:52:53;;;;;;;;;2.00;2.00;;;;;21.04;67.99;100293.22;5090118;27;45422;-78
2022/06/08 09:55:31;;;;;;;;;3.00;2.00;;;;;20.89;67.45;100247.16;5089869;27;45360;-78
2022/06/08 09:58:17;;;;;;;;;1.00;1.00;;;;;21.08;67.70;100278.91;5070989;27;45598;-78
2022/06/08 10:00:57;;;;;;;;;2.00;2.00;;;;;20.99;68.16;100260.34;5090788;27;46479;-78
2022/06/08 10:03:40;;;;;;;;;1.00;1.00;;;;;21.14;67.23;100280.59;5092769;27;45375;-78
2022/06/08 10:06:33;;;;;;;;;2.25;2.00;;;;;21.15;66.68;100270.78;5093249;27;45465;-78
2022/06/08 10:09:08;;;;;;;;;1.00;1.00;;;;;20.95;66.05;100226.56;5094586;27;45514;-79
2022/06/08 10:11:37;;;;;;;;;2.25;2.00;;;;;21.29;66.07;100272.31;5113333;27;46524;-79
2022/06/08 10:14:30;;;;;;;;;1.50;1.50;;;;;21.33;66.51;100267.84;5113551;27;46101;-78
2022/06/08 10:17:03;;;;;;;;;0.75;0.75;;;;;21.23;65.16;100242.13;5094833;27;45464;-78
2022/06/08 10:20:00;;;;;;;;;0.25;0.25;;;;;21.08;64.25;100219.22;5113594;27;45426;-78
2022/06/08 10:22:34;;;;;;;;;1.00;0.00;;;;;21.31;65.25;100240.25;5113422;27;45674;-78
2022/06/08 10:25:19;;;;;;;;;1.00;1.00;;;;;21.69;64.61;100250.25;5113445;27;45744;-78
2022/06/08 10:27:59;;;;;;;;;1.00;1.00;;;;;21.76;63.05;100241.19;5114022;27;45466;-78
2022/06/08 10:30:28;;;;;;;;;0.75;0.25;;;;;21.77;62.51;100223.34;5094310;27;45647;-78
2022/06/08 10:33:10;;;;;;;;;1.00;1.00;;;;;21.97;61.99;100242.56;5112626;27;46011;-78
2022/06/08 10:35:46;;;;;;;;;1.00;1.00;;;;;21.78;61.91;100214.41;5113747;27;45447;-78
2022/06/08 10:38:20;;;;;;;;;1.00;1.00;;;;;21.80;62.48;100232.19;5094512;27;45458;-78
2022/06/08 10:42:39;;;;;;;;;1.00;1.00;;;;;21.69;62.09;100214.59;5095138;27;45541;-78
2022/06/08 10:43:55;;;;;;;;;1.00;1.00;;;;;21.75;61.33;100234.06;5079122;27;46324;-78
2022/06/08 10:46:40;;;;;;;;;2.00;2.00;;;;;21.61;61.62;100190.66;5113066;27;45501;-79
2022/06/08 10:49:32;;;;;;;;;1.00;1.00;;;;;22.25;61.13;100234.00;5112743;27;45472;-78
2022/06/08 10:52:14;;;;;;;;;1.25;1.25;;;;;22.52;59.60;100241.44;5113007;27;45571;-78
2022/06/08 10:54:54;;;;;;;;;0.25;0.25;;;;;22.46;59.82;100225.47;5113278;27;46709;-78
2022/06/08 10:57:42;;;;;;;;;0.00;0.00;;;;;22.70;59.85;100260.66;5113021;27;45547;-78
2022/06/08 11:00:19;;;;;;;;;0.25;0.00;;;;;22.75;59.45;100250.72;5093106;27;45785;-79
2022/06/08 11:03:04;;;;;;;;;1.00;1.00;;;;;22.75;60.07;100256.06;5112826;27;45568;-77
2022/06/08 11:05:35;;;;;;;;;2.00;1.75;;;;;22.72;58.95;100253.50;5113251;27;46204;-78
2022/06/08 11:08:06;;;;;;;;;1.00;1.00;;;;;22.55;59.37;100254.72;5112757;27;45870;-78
2022/06/08 11:10:54;;;;;;;;;1.00;1.00;;;;;22.34;60.67;100269.47;5097549;27;45772;-78
2022/06/08 11:13:22;;;;;;;;;1.50;1.50;;;;;22.15;61.64;100268.97;5091329;27;45798;-78
2022/06/08 11:15:59;;;;;;;;;1.50;1.50;;;;;22.11;61.66;100269.94;5073612;27;47205;-78
2022/06/08 11:18:41;;;;;;;;;1.00;1.00;;;;;22.20;61.31;100270.69;5091948;27;45808;-77
2022/06/08 11:21:23;;;;;;;;;2.00;2.00;;;;;22.30;61.27;100242.81;5092028;27;45401;-78
2022/06/08 11:23:55;;;;;;;;;2.75;2.75;;;;;22.37;62.15;100233.75;5092601;27;45371;-79
2022/06/08 11:26:21;;;;;;;;;2.00;2.00;;;;;22.77;60.18;100257.81;5091207;27;45726;-78
2022/06/08 11:28:50;;;;;;;;;1.00;1.00;;;;;22.71;59.61;100224.91;5092367;27;45566;-78
2022/06/08 11:31:28;;;;;;;;;2.50;2.00;;;;;22.99;59.36;100255.53;5091067;27;45362;-78
2022/06/08 11:34:20;;;;;;;;;2.25;2.00;;;;;22.92;58.64;100254.81;5091622;27;45433;-78
2022/06/08 11:37:00;;;;;;;;;1.00;1.00;;;;;22.86;59.38;100259.41;5092325;27;45535;-78
2022/06/08 11:39:40;;;;;;;;;1.00;1.00;;;;;22.77;59.54;100243.53;5072912;27;45743;-78
2022/06/08 11:42:14;;;;;;;;;3.25;3.25;;;;;23.08;60.25;100249.06;5073320;27;45452;-79
2022/06/08 11:45:18;;;;;;;;;3.00;3.00;;;;;23.20;59.50;100235.34;5073536;27;45522;-78
2022/06/08 11:48:00;;;;;;;;;1.75;1.50;;;;;23.19;59.47;100225.53;5069484;27;45818;-78
2022/06/08 11:50:31;;;;;;;;;3.00;2.50;;;;;23.28;58.48;100233.38;5091446;27;45734;-78
2022/06/08 11:53:02;;;;;;;;;2.00;2.00;;;;;23.48;57.98;100230.16;5091683;27;45528;-79
2022/06/08 11:55:32;;;;;;;;;2.00;2.00;;;;;23.74;57.91;100232.16;5091733;27;45740;-78